Time;durP1;ratioP1;P1;durP2;ratioP2;P2;SDS_P1;SDS_P2;PMS_P1;PMS_P2;Temp;Humidity;BMP_temperature;BMP_pressure;BME280_temperature;BME280_humidity;BME280_pressure;Samples;Min_cycle;Max_cycle;Signal;HPM_P1;HPM_P2
2023/09/02 00:03:17;;;;;;;7.22;4.10;;;;;;;;;;10026679;28;20077;-71
2023/09/02 00:08:10;;;;;;;6.07;3.97;;;;;;;;;;10014439;28;20057;-73
2023/09/02 00:13:03;;;;;;;11.40;4.60;;;;;;;;;;10006480;28;20058;-74
2023/09/02 00:17:55;;;;;;;6.82;4.22;;;;;;;;;;10017294;28;20033;-74
2023/09/02 00:22:47;;;;;;;7.53;4.68;;;;;;;;;;10021521;28;20046;-74
2023/09/02 00:27:39;;;;;;;5.50;4.20;;;;;;;;;;10007744;28;20480;-73
2023/09/02 00:32:31;;;;;;;6.75;4.45;;;;;;;;;;10018967;28;20050;-75
2023/09/02 00:37:23;;;;;;;8.95;5.25;;;;;;;;;;10002916;28;20346;-73
2023/09/02 00:42:16;;;;;;;11.77;4.55;;;;;;;;;;10001614;28;20038;-75
2023/09/02 00:47:08;;;;;;;7.45;3.90;;;;;;;;;;9999891;28;20139;-74
2023/09/02 00:52:01;;;;;;;8.43;4.43;;;;;;;;;;9987081;28;20038;-74
2023/09/02 00:56:52;;;;;;;6.97;4.25;;;;;;;;;;9991663;28;20098;-73
2023/09/02 01:01:45;;;;;;;5.28;3.33;;;;;;;;;;10009611;28;20054;-75
2023/09/02 01:06:38;;;;;;;5.45;3.92;;;;;;;;;;10004862;28;20081;-74
2023/09/02 01:11:31;;;;;;;10.23;4.13;;;;;;;;;;9996464;28;20042;-73
2023/09/02 01:16:23;;;;;;;5.05;4.03;;;;;;;;;;10007824;28;20076;-72
2023/09/02 01:21:39;;;;;;;6.72;4.50;;;;;;;;;;10020168;28;20536;-74
2023/09/02 01:27:07;;;;;;;5.57;4.53;;;;;;;;;;10014622;28;20033;-74
2023/09/02 01:32:00;;;;;;;7.57;5.40;;;;;;;;;;9979237;28;20054;-75
2023/09/02 01:36:52;;;;;;;16.88;4.72;;;;;;;;;;10001352;28;20651;-74
2023/09/02 01:41:45;;;;;;;8.35;4.05;;;;;;;;;;9981298;28;20077;-74
2023/09/02 01:46:38;;;;;;;10.65;4.10;;;;;;;;;;10012118;28;20078;-73
2023/09/02 01:51:31;;;;;;;9.00;4.22;;;;;;;;;;10007578;28;20049;-73
2023/09/02 01:56:23;;;;;;;6.68;3.20;;;;;;;;;;10019030;28;20046;-74
2023/09/02 02:01:15;;;;;;;8.43;3.40;;;;;;;;;;10018594;28;20098;-75
2023/09/02 02:06:09;;;;;;;7.38;4.15;;;;;;;;;;9972543;28;20050;-75
2023/09/02 02:11:02;;;;;;;6.85;4.47;;;;;;;;;;9967002;28;20089;-74
2023/09/02 02:15:54;;;;;;;4.88;4.30;;;;;;;;;;10000296;28;20042;-75
2023/09/02 02:21:02;;;;;;;5.15;3.65;;;;;;;;;;10022850;28;20042;-74
2023/09/02 02:26:02;;;;;;;5.60;3.92;;;;;;;;;;10016441;28;20093;-75
2023/09/02 02:30:55;;;;;;;7.60;4.35;;;;;;;;;;10015744;28;20594;-72
2023/09/02 02:35:47;;;;;;;7.15;3.70;;;;;;;;;;10009005;28;20144;-72
2023/09/02 02:40:40;;;;;;;5.70;4.28;;;;;;;;;;10005130;28;20380;-72
2023/09/02 02:45:31;;;;;;;18.23;4.00;;;;;;;;;;10019839;28;20089;-72
2023/09/02 02:50:24;;;;;;;14.27;5.15;;;;;;;;;;10027200;28;20373;-72
2023/09/02 02:55:16;;;;;;;6.40;4.35;;;;;;;;;;10005858;28;20138;-73
2023/09/02 03:00:09;;;;;;;7.03;4.88;;;;;;;;;;9997133;28;20049;-73
2023/09/02 03:05:02;;;;;;;9.10;4.50;;;;;;;;;;10012150;28;20112;-74
2023/09/02 03:09:54;;;;;;;7.47;4.40;;;;;;;;;;9969790;28;20384;-72
2023/09/02 03:14:47;;;;;;;6.70;3.47;;;;;;;;;;9998540;28;20480;-73
2023/09/02 03:19:44;;;;;;;6.53;4.55;;;;;;;;;;10000979;28;20046;-73
2023/09/02 03:24:36;;;;;;;4.57;3.45;;;;;;;;;;9979231;28;20042;-72
2023/09/02 03:29:28;;;;;;;5.85;3.20;;;;;;;;;;10006906;28;20049;-73
2023/09/02 03:34:23;;;;;;;6.63;3.92;;;;;;;;;;10000218;28;20054;-74
2023/09/02 03:39:16;;;;;;;7.15;3.63;;;;;;;;;;9979641;28;20345;-74
2023/09/02 03:44:08;;;;;;;10.13;3.92;;;;;;;;;;10009549;28;20041;-72
2023/09/02 03:49:00;;;;;;;8.30;3.70;;;;;;;;;;10006420;28;20129;-73
2023/09/02 03:53:53;;;;;;;3.38;2.92;;;;;;;;;;9997449;28;20069;-74
2023/09/02 03:58:45;;;;;;;6.15;3.60;;;;;;;;;;10005260;28;20544;-73
2023/09/02 04:03:38;;;;;;;6.03;3.50;;;;;;;;;;10006225;28;20491;-74
2023/09/02 04:08:34;;;;;;;7.63;3.80;;;;;;;;;;10009125;28;20050;-74
2023/09/02 04:13:30;;;;;;;4.88;3.55;;;;;;;;;;9987731;28;20049;-74
2023/09/02 04:18:30;;;;;;;9.27;5.00;;;;;;;;;;10001107;28;20084;-73
2023/09/02 04:23:23;;;;;;;6.93;4.63;;;;;;;;;;9988543;28;20141;-74
2023/09/02 04:28:17;;;;;;;6.65;3.60;;;;;;;;;;10003235;28;20366;-71
2023/09/02 04:33:10;;;;;;;6.45;3.97;;;;;;;;;;9977223;28;20054;-73
2023/09/02 04:38:03;;;;;;;7.75;4.22;;;;;;;;;;10022641;28;20069;-72
2023/09/02 04:42:56;;;;;;;3.80;2.95;;;;;;;;;;10013506;28;20046;-74
2023/09/02 04:47:49;;;;;;;6.35;3.65;;;;;;;;;;9984148;28;20050;-75
2023/09/02 04:52:44;;;;;;;4.63;3.47;;;;;;;;;;9980162;28;20046;-74
2023/09/02 04:57:36;;;;;;;5.82;3.85;;;;;;;;;;9997874;28;20042;-73
2023/09/02 05:02:28;;;;;;;6.07;3.72;;;;;;;;;;9996988;28;20072;-72
2023/09/02 05:07:20;;;;;;;3.92;3.30;;;;;;;;;;10000023;28;20053;-73
2023/09/02 05:12:12;;;;;;;7.65;4.15;;;;;;;;;;10021513;28;20038;-73
2023/09/02 05:17:04;;;;;;;6.07;3.55;;;;;;;;;;9995442;28;20064;-72
2023/09/02 05:21:57;;;;;;;5.95;3.85;;;;;;;;;;10054077;28;20041;-73
2023/09/02 05:26:49;;;;;;;5.03;3.35;;;;;;;;;;9995709;28;20418;-74
2023/09/02 05:31:41;;;;;;;5.03;3.55;;;;;;;;;;9999882;28;20149;-74
2023/09/02 05:36:33;;;;;;;5.75;3.13;;;;;;;;;;10015984;28;20354;-73
2023/09/02 05:41:25;;;;;;;5.45;3.10;;;;;;;;;;10021537;28;20049;-72
2023/09/02 05:46:16;;;;;;;6.47;3.63;;;;;;;;;;10012516;28;20101;-73
2023/09/02 05:51:08;;;;;;;9.48;3.35;;;;;;;;;;10025679;28;20049;-73
2023/09/02 05:56:00;;;;;;;5.47;3.35;;;;;;;;;;10026377;28;20050;-73
2023/09/02 06:00:52;;;;;;;14.57;4.40;;;;;;;;;;10016501;28;20526;-74
2023/09/02 06:05:44;;;;;;;8.20;3.72;;;;;;;;;;10022719;28;20109;-73
2023/09/02 06:10:36;;;;;;;8.25;3.42;;;;;;;;;;10019242;28;20411;-72
2023/09/02 06:15:28;;;;;;;8.07;3.20;;;;;;;;;;10032949;28;20412;-72
2023/09/02 06:20:22;;;;;;;10.10;3.33;;;;;;;;;;10027147;28;20046;-73
2023/09/02 06:25:14;;;;;;;7.40;3.45;;;;;;;;;;10017779;28;20136;-72
2023/09/02 06:30:07;;;;;;;6.13;3.47;;;;;;;;;;10027228;28;20045;-74
2023/09/02 06:34:59;;;;;;;6.97;4.07;;;;;;;;;;10036198;28;20140;-74
2023/09/02 06:39:54;;;;;;;5.40;3.72;;;;;;;;;;9988286;28;20485;-76
2023/09/02 06:44:47;;;;;;;7.15;3.22;;;;;;;;;;9984197;28;20075;-72
2023/09/02 06:49:39;;;;;;;6.40;3.55;;;;;;;;;;9997553;28;20042;-73
2023/09/02 06:54:30;;;;;;;9.00;3.45;;;;;;;;;;10001375;28;21041;-74
2023/09/02 06:59:25;;;;;;;6.10;3.65;;;;;;;;;;9991113;28;20053;-73
2023/09/02 07:04:17;;;;;;;3.42;2.58;;;;;;;;;;9998236;28;20046;-72
2023/09/02 07:09:09;;;;;;;5.45;3.03;;;;;;;;;;10022366;28;20446;-74
2023/09/02 07:14:02;;;;;;;2.92;2.63;;;;;;;;;;10028046;28;20084;-73
2023/09/02 07:18:54;;;;;;;3.80;2.90;;;;;;;;;;10016062;28;20064;-76
2023/09/02 07:23:46;;;;;;;9.85;3.42;;;;;;;;;;10014830;28;20081;-75
2023/09/02 07:28:39;;;;;;;5.97;3.35;;;;;;;;;;10003681;28;20558;-73
2023/09/02 07:33:31;;;;;;;4.95;3.45;;;;;;;;;;10014728;28;20038;-74
2023/09/02 07:38:23;;;;;;;10.68;3.20;;;;;;;;;;10017869;28;20092;-74
2023/09/02 07:43:15;;;;;;;7.65;3.53;;;;;;;;;;10011437;28;20120;-74
2023/09/02 07:48:08;;;;;;;9.05;4.85;;;;;;;;;;10016336;28;20050;-74
2023/09/02 07:53:00;;;;;;;4.80;3.35;;;;;;;;;;10012033;28;20125;-72
2023/09/02 07:57:52;;;;;;;6.03;3.20;;;;;;;;;;10016703;28;20133;-74
2023/09/02 08:02:43;;;;;;;7.07;3.30;;;;;;;;;;10016035;28;20100;-73
2023/09/02 08:07:36;;;;;;;5.40;3.97;;;;;;;;;;10018971;28;20045;-73
2023/09/02 08:12:28;;;;;;;5.82;3.88;;;;;;;;;;10016254;28;20046;-74
2023/09/02 08:17:20;;;;;;;7.78;3.67;;;;;;;;;;10018809;28;20053;-74
2023/09/02 08:22:13;;;;;;;9.07;4.05;;;;;;;;;;10003381;28;20464;-72
2023/09/02 08:27:05;;;;;;;8.38;4.30;;;;;;;;;;10001461;28;20156;-77
2023/09/02 08:31:57;;;;;;;7.45;4.03;;;;;;;;;;10012133;28;20042;-73
2023/09/02 08:36:49;;;;;;;12.85;4.65;;;;;;;;;;10015104;28;20092;-75
2023/09/02 08:41:41;;;;;;;7.85;5.28;;;;;;;;;;9994829;28;20058;-73
2023/09/02 08:46:36;;;;;;;7.57;4.50;;;;;;;;;;10016721;28;20081;-74
2023/09/02 08:51:28;;;;;;;10.95;6.80;;;;;;;;;;10002543;28;20054;-75
2023/09/02 08:56:21;;;;;;;11.00;5.22;;;;;;;;;;10021560;28;20531;-76
2023/09/02 09:01:18;;;;;;;9.73;4.78;;;;;;;;;;9981963;28;20066;-73
2023/09/02 09:06:10;;;;;;;7.82;5.22;;;;;;;;;;9987279;28;20381;-73
2023/09/02 09:11:04;;;;;;;10.48;5.15;;;;;;;;;;9974474;28;20452;-74
2023/09/02 09:15:57;;;;;;;8.35;5.25;;;;;;;;;;9971657;28;20085;-73
2023/09/02 09:20:49;;;;;;;9.18;5.07;;;;;;;;;;10009813;28;20077;-74
2023/09/02 09:25:42;;;;;;;11.23;5.60;;;;;;;;;;10000990;28;20066;-73
2023/09/02 09:30:34;;;;;;;8.40;5.32;;;;;;;;;;9969749;28;20069;-76
2023/09/02 09:35:25;;;;;;;7.85;5.43;;;;;;;;;;9997952;28;20649;-74
2023/09/02 09:40:29;;;;;;;8.15;5.43;;;;;;;;;;10026045;28;20049;-75
2023/09/02 09:45:21;;;;;;;8.98;6.20;;;;;;;;;;10003745;28;20058;-75
2023/09/02 09:50:14;;;;;;;7.78;5.70;;;;;;;;;;9986700;28;20649;-75
2023/09/02 09:55:06;;;;;;;9.15;5.35;;;;;;;;;;9986656;28;20054;-75
2023/09/02 10:00:06;;;;;;;10.15;6.03;;;;;;;;;;9990553;28;20042;-74
2023/09/02 10:05:00;;;;;;;13.00;6.05;;;;;;;;;;10007988;28;20139;-75
2023/09/02 10:09:55;;;;;;;13.00;6.18;;;;;;;;;;9988230;28;20046;-75
2023/09/02 10:14:48;;;;;;;14.65;5.90;;;;;;;;;;9985780;28;20380;-76
2023/09/02 10:19:41;;;;;;;8.40;5.68;;;;;;;;;;9985546;28;20093;-76
2023/09/02 10:24:50;;;;;;;10.27;6.50;;;;;;;;;;9988264;28;20477;-75
2023/09/02 10:29:44;;;;;;;7.72;5.93;;;;;;;;;;9970322;28;20433;-73
2023/09/02 10:34:40;;;;;;;10.77;6.45;;;;;;;;;;9986779;28;20050;-75
2023/09/02 10:40:10;;;;;;;13.38;7.05;;;;;;;;;;9991373;28;20058;-75
2023/09/02 10:45:02;;;;;;;7.30;5.25;;;;;;;;;;10002209;28;20050;-76
2023/09/02 10:49:54;;;;;;;16.05;8.23;;;;;;;;;;9967198;28;20057;-76
2023/09/02 10:55:02;;;;;;;10.32;7.10;;;;;;;;;;9968767;28;20483;-76
2023/09/02 11:00:14;;;;;;;11.40;6.32;;;;;;;;;;9990190;28;20054;-76
2023/09/02 11:05:06;;;;;;;10.48;6.97;;;;;;;;;;10014054;28;20046;-75
2023/09/02 11:09:58;;;;;;;16.40;6.20;;;;;;;;;;9983900;28;20477;-75
2023/09/02 11:15:09;;;;;;;11.02;6.82;;;;;;;;;;9990462;28;20048;-76
2023/09/02 11:20:07;;;;;;;7.60;5.38;;;;;;;;;;10012357;28;20172;-74
2023/09/02 11:24:59;;;;;;;8.50;6.05;;;;;;;;;;10019657;28;20129;-73
2023/09/02 11:30:08;;;;;;;9.60;5.75;;;;;;;;;;9970368;28;20054;-74
2023/09/02 11:34:59;;;;;;;;;;;;;;;;;;9983703;28;20046;-74
2023/09/02 11:39:51;;;;;;;10.02;6.13;;;;;;;;;;9966976;28;20012;-75
2023/09/02 11:44:52;;;;;;;9.52;5.65;;;;;;;;;;9999531;28;20137;-75
2023/09/02 11:49:44;;;;;;;7.72;5.13;;;;;;;;;;10021775;28;20096;-74
2023/09/02 11:54:37;;;;;;;6.15;5.03;;;;;;;;;;10024246;28;20421;-75
2023/09/02 11:59:28;;;;;;;8.25;5.93;;;;;;;;;;10020137;28;20129;-75
2023/09/02 12:04:21;;;;;;;7.57;5.20;;;;;;;;;;10000508;28;20049;-72
2023/09/02 12:09:13;;;;;;;6.78;4.55;;;;;;;;;;9994655;28;20046;-73
2023/09/02 12:14:07;;;;;;;7.03;4.82;;;;;;;;;;9990830;28;20490;-73
2023/09/02 12:19:00;;;;;;;8.00;5.65;;;;;;;;;;10025920;28;20060;-73
2023/09/02 12:23:52;;;;;;;9.32;6.00;;;;;;;;;;10059899;28;20056;-76
2023/09/02 12:28:49;;;;;;;8.70;5.50;;;;;;;;;;9963051;28;20066;-75
2023/09/02 12:33:41;;;;;;;10.27;4.93;;;;;;;;;;9993817;28;20041;-76
2023/09/02 12:38:52;;;;;;;12.77;6.95;;;;;;;;;;10042860;28;20053;-74
2023/09/02 12:43:44;;;;;;;10.98;5.05;;;;;;;;;;9995946;28;20049;-75
2023/09/02 12:48:36;;;;;;;8.48;5.05;;;;;;;;;;10012084;28;20038;-75
2023/09/02 12:53:28;;;;;;;8.35;5.10;;;;;;;;;;10036844;28;20046;-73
2023/09/02 12:58:19;;;;;;;7.82;4.75;;;;;;;;;;10021499;28;20930;-74
2023/09/02 13:03:11;;;;;;;10.73;4.57;;;;;;;;;;10012838;28;20054;-75
2023/09/02 13:08:04;;;;;;;6.47;4.07;;;;;;;;;;10028561;28;20136;-71
2023/09/02 13:12:57;;;;;;;10.35;5.18;;;;;;;;;;10032387;28;20041;-76
2023/09/02 13:17:49;;;;;;;5.43;4.22;;;;;;;;;;10018660;28;20046;-70
2023/09/02 13:22:41;;;;;;;6.90;4.93;;;;;;;;;;10019752;28;20041;-71
2023/09/02 13:27:33;;;;;;;8.18;4.03;;;;;;;;;;10020513;28;20034;-71
2023/09/02 13:32:26;;;;;;;6.47;4.00;;;;;;;;;;10022564;28;20068;-72
2023/09/02 13:37:31;;;;;;;6.95;4.38;;;;;;;;;;10021930;28;20056;-71
2023/09/02 13:42:23;;;;;;;6.03;3.40;;;;;;;;;;10019287;28;20046;-70
2023/09/02 13:47:17;;;;;;;8.02;3.65;;;;;;;;;;10020665;28;20483;-72
2023/09/02 13:52:11;;;;;;;9.23;5.35;;;;;;;;;;10028282;28;20046;-71
2023/09/02 13:57:04;;;;;;;6.45;3.97;;;;;;;;;;10018489;28;20050;-73
2023/09/02 14:01:56;;;;;;;10.38;5.25;;;;;;;;;;10023046;28;20077;-73
2023/09/02 14:06:48;;;;;;;9.60;4.00;;;;;;;;;;10028961;28;20060;-72
2023/09/02 14:11:41;;;;;;;7.18;3.58;;;;;;;;;;10029070;28;20042;-72
2023/09/02 14:16:32;;;;;;;7.50;3.70;;;;;;;;;;10045570;28;20097;-73
2023/09/02 14:21:24;;;;;;;10.50;3.85;;;;;;;;;;10028058;28;20138;-74
2023/09/02 14:26:16;;;;;;;10.63;4.20;;;;;;;;;;10027749;28;20050;-71
2023/09/02 14:31:09;;;;;;;5.60;3.20;;;;;;;;;;10027790;28;20444;-74
2023/09/02 14:36:02;;;;;;;5.57;3.55;;;;;;;;;;10027676;28;20053;-74
2023/09/02 14:40:54;;;;;;;7.15;3.40;;;;;;;;;;10009817;28;20128;-74
2023/09/02 14:45:46;;;;;;;5.35;4.07;;;;;;;;;;10027254;28;20069;-73
2023/09/02 14:50:40;;;;;;;6.43;2.90;;;;;;;;;;10026555;28;20053;-73
2023/09/02 14:55:33;;;;;;;6.43;3.80;;;;;;;;;;10026598;28;20088;-74
2023/09/02 15:00:25;;;;;;;7.75;3.65;;;;;;;;;;10024256;28;20050;-74
2023/09/02 15:05:19;;;;;;;4.50;3.00;;;;;;;;;;10026132;28;20065;-73
2023/09/02 15:10:25;;;;;;;4.50;3.60;;;;;;;;;;10024118;28;20042;-72
2023/09/02 15:15:20;;;;;;;6.43;2.65;;;;;;;;;;10024731;28;20046;-73
2023/09/02 15:20:22;;;;;;;6.38;3.65;;;;;;;;;;10026376;28;20054;-74
2023/09/02 15:25:15;;;;;;;7.32;3.05;;;;;;;;;;10024607;28;20757;-74
2023/09/02 15:30:09;;;;;;;10.40;3.92;;;;;;;;;;10022296;28;20081;-74
2023/09/02 15:35:01;;;;;;;8.88;3.40;;;;;;;;;;10025817;28;20480;-72
2023/09/02 15:39:54;;;;;;;5.13;3.72;;;;;;;;;;10023801;28;20050;-74
2023/09/02 15:44:46;;;;;;;6.95;2.95;;;;;;;;;;10025695;28;20054;-74
2023/09/02 15:49:38;;;;;;;5.63;2.88;;;;;;;;;;10023802;28;20097;-72
2023/09/02 15:54:29;;;;;;;5.63;3.22;;;;;;;;;;10032390;28;20072;-73
2023/09/02 15:59:22;;;;;;;7.07;2.63;;;;;;;;;;10048024;28;20101;-75
2023/09/02 16:04:13;;;;;;;6.28;3.22;;;;;;;;;;10024067;28;20053;-73
2023/09/02 16:09:05;;;;;;;4.30;3.00;;;;;;;;;;10022333;28;20076;-75
2023/09/02 16:13:57;;;;;;;4.07;2.50;;;;;;;;;;10022588;28;20082;-75
2023/09/02 16:18:49;;;;;;;3.40;2.88;;;;;;;;;;10021249;28;20079;-76
2023/09/02 16:23:41;;;;;;;6.35;3.40;;;;;;;;;;10022705;28;20054;-74
2023/09/02 16:28:33;;;;;;;6.55;3.13;;;;;;;;;;9996375;28;20084;-75
2023/09/02 16:33:26;;;;;;;5.35;3.08;;;;;;;;;;10023057;28;20038;-75
2023/09/02 16:38:18;;;;;;;6.72;3.22;;;;;;;;;;10022868;28;20049;-74
2023/09/02 16:43:11;;;;;;;3.83;2.80;;;;;;;;;;10022600;28;20112;-75
2023/09/02 16:48:06;;;;;;;5.38;3.25;;;;;;;;;;10021267;28;20764;-76
2023/09/02 16:53:01;;;;;;;6.80;3.03;;;;;;;;;;10017384;28;20042;-75
2023/09/02 16:57:54;;;;;;;6.88;3.03;;;;;;;;;;10022794;28;20046;-75
2023/09/02 17:02:49;;;;;;;3.22;2.88;;;;;;;;;;10023123;28;20448;-75
2023/09/02 17:07:43;;;;;;;6.13;4.03;;;;;;;;;;10022480;28;20056;-74
2023/09/02 17:12:42;;;;;;;9.05;4.00;;;;;;;;;;10024081;28;20424;-73
2023/09/02 17:17:36;;;;;;;6.32;3.72;;;;;;;;;;10059531;28;20053;-74
2023/09/02 17:22:28;;;;;;;9.63;3.80;;;;;;;;;;10058533;28;20048;-73
2023/09/02 17:27:20;;;;;;;5.93;3.88;;;;;;;;;;10066352;28;20055;-72
2023/09/02 17:32:13;;;;;;;8.80;4.05;;;;;;;;;;10066443;28;20368;-72
2023/09/02 17:37:05;;;;;;;10.20;3.80;;;;;;;;;;10069390;28;20041;-74
2023/09/02 17:41:56;;;;;;;8.85;3.60;;;;;;;;;;10069577;28;20046;-74
2023/09/02 17:46:48;;;;;;;6.28;3.83;;;;;;;;;;10069558;28;20066;-74
2023/09/02 17:51:40;;;;;;;4.93;3.22;;;;;;;;;;10068944;28;20041;-73
2023/09/02 17:56:32;;;;;;;15.30;5.55;;;;;;;;;;10067932;28;20045;-74
2023/09/02 18:01:24;;;;;;;10.70;4.15;;;;;;;;;;10068225;28;20112;-74
2023/09/02 18:06:15;;;;;;;6.85;4.03;;;;;;;;;;10068714;28;20061;-73
2023/09/02 18:11:07;;;;;;;5.28;4.05;;;;;;;;;;10068169;28;20128;-73
2023/09/02 18:15:59;;;;;;;5.85;3.50;;;;;;;;;;10068340;28;20045;-73
2023/09/02 18:20:51;;;;;;;6.97;3.58;;;;;;;;;;10067831;28;20046;-72
2023/09/02 18:25:43;;;;;;;11.77;4.82;;;;;;;;;;10068089;28;20128;-74
2023/09/02 18:30:35;;;;;;;6.43;3.97;;;;;;;;;;10068155;28;20049;-72
2023/09/02 18:35:26;;;;;;;8.93;3.65;;;;;;;;;;10066913;28;20096;-71
2023/09/02 18:40:18;;;;;;;7.10;4.05;;;;;;;;;;10066942;28;20104;-72
2023/09/02 18:45:12;;;;;;;6.53;3.88;;;;;;;;;;10067774;28;20371;-73
2023/09/02 18:50:05;;;;;;;6.28;5.22;;;;;;;;;;10066792;28;20148;-73
2023/09/02 18:54:57;;;;;;;9.23;3.47;;;;;;;;;;10066632;28;20494;-72
2023/09/02 18:59:49;;;;;;;5.45;3.63;;;;;;;;;;10024100;28;20120;-73
2023/09/02 19:04:41;;;;;;;6.63;4.47;;;;;;;;;;10026900;28;20162;-72
2023/09/02 19:09:34;;;;;;;4.15;3.60;;;;;;;;;;10025697;28;20099;-72
2023/09/02 19:14:26;;;;;;;4.93;4.25;;;;;;;;;;10028294;28;20046;-73
2023/09/02 19:19:19;;;;;;;5.20;4.65;;;;;;;;;;10039799;28;20041;-71
2023/09/02 19:24:11;;;;;;;11.30;4.70;;;;;;;;;;10054470;28;20060;-72
2023/09/02 19:29:03;;;;;;;8.30;3.78;;;;;;;;;;10007823;28;20050;-73
2023/09/02 19:33:55;;;;;;;6.93;4.65;;;;;;;;;;10025557;28;20105;-73
2023/09/02 19:38:47;;;;;;;6.10;4.00;;;;;;;;;;10024981;28;20061;-74
2023/09/02 19:43:39;;;;;;;6.30;4.05;;;;;;;;;;10021372;28;20187;-71
2023/09/02 19:48:31;;;;;;;4.75;4.28;;;;;;;;;;10017023;28;20048;-73
2023/09/02 19:53:23;;;;;;;7.28;4.35;;;;;;;;;;10025525;28;20061;-73
2023/09/02 19:58:15;;;;;;;6.55;4.30;;;;;;;;;;10024667;28;20109;-74
2023/09/02 20:03:07;;;;;;;8.93;4.13;;;;;;;;;;10024811;28;20341;-72
2023/09/02 20:07:59;;;;;;;10.77;4.88;;;;;;;;;;10024785;28;20128;-71
2023/09/02 20:12:51;;;;;;;5.65;4.40;;;;;;;;;;10024829;28;20381;-73
2023/09/02 20:17:42;;;;;;;5.22;3.53;;;;;;;;;;10024978;28;20127;-73
2023/09/02 20:22:34;;;;;;;6.53;4.00;;;;;;;;;;10024759;28;20065;-72
2023/09/02 20:27:26;;;;;;;4.75;4.00;;;;;;;;;;10023787;28;20061;-72
2023/09/02 20:32:18;;;;;;;7.28;4.65;;;;;;;;;;10024443;28;20497;-73
2023/09/02 20:37:12;;;;;;;6.65;4.65;;;;;;;;;;10023629;28;20061;-74
2023/09/02 20:42:05;;;;;;;9.75;5.70;;;;;;;;;;10023838;28;20042;-76
2023/09/02 20:46:57;;;;;;;4.78;4.00;;;;;;;;;;10023714;28;20507;-76
2023/09/02 20:51:48;;;;;;;8.90;4.43;;;;;;;;;;10023512;28;20380;-75
2023/09/02 20:56:41;;;;;;;4.55;3.80;;;;;;;;;;10017069;28;20137;-79
2023/09/02 21:01:34;;;;;;;7.97;5.95;;;;;;;;;;10018970;28;20046;-77
2023/09/02 21:06:27;;;;;;;13.13;7.28;;;;;;;;;;10031673;28;20215;-78
2023/09/02 21:11:18;;;;;;;6.78;4.22;;;;;;;;;;9994917;28;20116;-71
2023/09/02 21:16:17;;;;;;;7.80;5.47;;;;;;;;;;10027381;28;20468;-67
2023/09/02 21:21:09;;;;;;;5.93;5.32;;;;;;;;;;10030487;28;20050;-71
2023/09/02 21:26:10;;;;;;;8.90;4.75;;;;;;;;;;10029584;28;20484;-71
2023/09/02 21:31:04;;;;;;;5.97;5.22;;;;;;;;;;10030115;28;20109;-70
2023/09/02 21:35:56;;;;;;;7.88;5.20;;;;;;;;;;10030383;28;20038;-70
2023/09/02 21:40:48;;;;;;;5.70;5.10;;;;;;;;;;10016420;28;20081;-70
2023/09/02 21:45:40;;;;;;;9.85;5.22;;;;;;;;;;10037323;28;20050;-71
2023/09/02 21:50:32;;;;;;;5.25;4.75;;;;;;;;;;10029514;28;20049;-71
2023/09/02 21:55:23;;;;;;;5.68;4.88;;;;;;;;;;10028725;28;20141;-71
2023/09/02 22:00:15;;;;;;;10.68;5.20;;;;;;;;;;10028708;28;20560;-70
2023/09/02 22:05:08;;;;;;;6.50;5.55;;;;;;;;;;10028103;28;20148;-69
2023/09/02 22:09:59;;;;;;;12.38;5.30;;;;;;;;;;10027225;28;20145;-72
2023/09/02 22:14:51;;;;;;;6.65;5.07;;;;;;;;;;10027886;28;20452;-70
2023/09/02 22:19:43;;;;;;;8.68;5.60;;;;;;;;;;10025587;28;20077;-70
2023/09/02 22:24:35;;;;;;;10.18;5.32;;;;;;;;;;10027179;28;20100;-71
2023/09/02 22:29:27;;;;;;;9.23;5.80;;;;;;;;;;10027873;28;20046;-71
2023/09/02 22:34:19;;;;;;;7.25;5.03;;;;;;;;;;10014082;28;20128;-72
2023/09/02 22:39:11;;;;;;;8.88;5.38;;;;;;;;;;10025934;28;20057;-71
2023/09/02 22:44:02;;;;;;;7.03;5.20;;;;;;;;;;10027555;28;20058;-71
2023/09/02 22:48:54;;;;;;;8.88;5.45;;;;;;;;;;10026434;28;20460;-70
2023/09/02 22:53:48;;;;;;;6.47;5.57;;;;;;;;;;10025046;28;20038;-69
2023/09/02 22:58:40;;;;;;;8.65;5.68;;;;;;;;;;10007285;28;20045;-70
2023/09/02 23:03:32;;;;;;;6.85;4.93;;;;;;;;;;10025887;28;20497;-70
2023/09/02 23:08:24;;;;;;;11.23;5.53;;;;;;;;;;10024976;28;20257;-70
2023/09/02 23:13:16;;;;;;;6.82;6.13;;;;;;;;;;10008840;28;20061;-68
2023/09/02 23:18:10;;;;;;;7.15;5.10;;;;;;;;;;10008532;28;20079;-70
2023/09/02 23:23:02;;;;;;;7.65;6.85;;;;;;;;;;10025055;28;20042;-71
2023/09/02 23:27:53;;;;;;;7.15;5.25;;;;;;;;;;10012507;28;20392;-70
2023/09/02 23:32:50;;;;;;;10.32;6.22;;;;;;;;;;10025156;28;20046;-70
2023/09/02 23:37:43;;;;;;;9.05;5.15;;;;;;;;;;10025194;28;20073;-70
2023/09/02 23:42:35;;;;;;;9.27;5.75;;;;;;;;;;10016731;28;20060;-70
2023/09/02 23:47:28;;;;;;;6.38;5.78;;;;;;;;;;10008742;28;20054;-71
2023/09/02 23:52:20;;;;;;;6.25;5.18;;;;;;;;;;9989220;28;20495;-70
2023/09/02 23:57:12;;;;;;;7.15;5.45;;;;;;;;;;10006243;28;20042;-68
